createdAt,value
2022-12-17T00:02:35.379Z,38.00
2022-12-17T00:05:22.127Z,38.00
2022-12-17T00:08:30.044Z,38.00
2022-12-17T00:11:17.720Z,38.00
2022-12-17T00:14:04.491Z,38.00
2022-12-17T00:16:50.834Z,38.10
2022-12-17T00:19:37.507Z,38.10
2022-12-17T00:22:23.899Z,38.10
2022-12-17T00:25:10.462Z,38.10
2022-12-17T00:27:56.565Z,38.10
2022-12-17T00:30:43.260Z,38.10
2022-12-17T00:33:31.475Z,38.10
2022-12-17T00:36:17.843Z,38.10
2022-12-17T00:39:04.628Z,38.10
2022-12-17T00:41:50.986Z,38.10
2022-12-17T00:44:37.507Z,38.10
2022-12-17T00:47:23.955Z,38.10
2022-12-17T00:50:10.234Z,38.10
2022-12-17T00:52:56.763Z,38.10
2022-12-17T00:55:43.344Z,38.10
2022-12-17T00:58:29.723Z,38.10
2022-12-17T01:01:20.074Z,38.10
2022-12-17T01:04:06.873Z,38.10
2022-12-17T01:06:54.020Z,38.10
2022-12-17T01:09:40.612Z,38.10
2022-12-17T01:12:27.324Z,38.10
2022-12-17T01:15:14.268Z,38.10
2022-12-17T01:18:00.746Z,38.10
2022-12-17T01:20:47.211Z,38.10
2022-12-17T01:23:35.805Z,38.10
2022-12-17T01:26:22.620Z,38.10
2022-12-17T01:29:08.839Z,38.10
2022-12-17T01:31:55.468Z,38.10
2022-12-17T01:34:42.061Z,38.10
2022-12-17T01:37:28.609Z,38.10
2022-12-17T01:40:14.777Z,38.10
2022-12-17T01:43:04.130Z,38.10
2022-12-17T01:46:06.127Z,38.10
2022-12-17T01:49:05.929Z,38.10
2022-12-17T01:51:54.227Z,38.10
2022-12-17T01:54:41.341Z,38.10
2022-12-17T01:57:28.234Z,38.10
2022-12-17T02:00:25.069Z,38.10
2022-12-17T02:03:11.536Z,38.10
2022-12-17T02:06:04.206Z,38.10
2022-12-17T02:09:23.658Z,38.10
2022-12-17T02:12:29.008Z,38.10
2022-12-17T02:15:37.261Z,38.10
2022-12-17T02:18:36.593Z,38.10
2022-12-17T02:21:25.261Z,38.10
2022-12-17T02:24:29.726Z,38.10
2022-12-17T02:27:21.699Z,38.20
2022-12-17T02:30:11.965Z,38.20
2022-12-17T02:33:03.116Z,38.20
2022-12-17T02:35:53.434Z,38.20
2022-12-17T02:38:45.238Z,38.20
2022-12-17T02:41:47.807Z,38.20
2022-12-17T02:44:37.510Z,38.20
2022-12-17T02:47:27.511Z,38.20
2022-12-17T02:50:14.307Z,38.20
2022-12-17T02:53:07.095Z,38.20
2022-12-17T02:55:55.026Z,38.20
2022-12-17T02:58:41.606Z,38.20
2022-12-17T03:01:28.009Z,38.20
2022-12-17T03:04:14.765Z,38.20
2022-12-17T03:07:04.141Z,38.20
2022-12-17T03:09:50.748Z,38.20
2022-12-17T03:12:37.555Z,38.30
2022-12-17T03:15:24.437Z,38.20
2022-12-17T03:18:10.546Z,38.20
2022-12-17T03:20:56.753Z,38.20
2022-12-17T03:23:43.170Z,38.20
2022-12-17T03:26:29.806Z,38.20
2022-12-17T03:29:16.081Z,38.30
2022-12-17T03:32:02.346Z,38.20
2022-12-17T03:34:48.797Z,38.30
2022-12-17T03:37:35.221Z,38.30
2022-12-17T03:40:38.498Z,38.20
2022-12-17T03:43:28.379Z,38.30
2022-12-17T03:46:15.367Z,38.30
2022-12-17T03:49:01.659Z,38.30
2022-12-17T03:51:48.121Z,38.30
2022-12-17T03:54:34.689Z,38.30
2022-12-17T03:57:20.850Z,38.20
2022-12-17T04:00:07.457Z,38.30
2022-12-17T04:03:00.025Z,38.30
2022-12-17T04:05:46.334Z,38.30
2022-12-17T04:08:33.050Z,38.30
2022-12-17T04:11:20.083Z,38.30
2022-12-17T04:14:06.330Z,38.20
2022-12-17T04:16:52.965Z,38.40
2022-12-17T04:19:53.114Z,38.80
2022-12-17T04:22:39.521Z,39.50
2022-12-17T04:25:26.122Z,39.70
2022-12-17T04:28:12.664Z,40.00
2022-12-17T04:30:59.082Z,40.10
2022-12-17T04:33:45.675Z,40.00
2022-12-17T04:36:31.970Z,40.30
2022-12-17T04:39:18.319Z,40.40
2022-12-17T04:42:04.504Z,40.50
2022-12-17T04:44:51.080Z,40.70
2022-12-17T04:47:37.476Z,40.50
2022-12-17T04:50:24.218Z,40.80
2022-12-17T04:53:22.600Z,40.90
2022-12-17T04:56:09.645Z,40.90
2022-12-17T04:58:56.129Z,41.40
2022-12-17T05:01:42.897Z,41.40
2022-12-17T05:04:29.506Z,41.40
2022-12-17T05:07:15.856Z,41.40
2022-12-17T05:10:02.003Z,41.30
2022-12-17T05:12:48.482Z,41.80
2022-12-17T05:15:35.015Z,41.70
2022-12-17T05:18:26.798Z,41.60
2022-12-17T05:21:13.573Z,41.80
2022-12-17T05:24:00.101Z,42.00
2022-12-17T05:26:47.929Z,42.10
2022-12-17T05:29:34.720Z,42.20
2022-12-17T05:32:20.937Z,42.10
2022-12-17T05:35:07.216Z,42.20
2022-12-17T05:37:53.831Z,42.30
2022-12-17T05:40:40.530Z,42.20
2022-12-17T05:43:30.756Z,42.30
2022-12-17T05:46:17.353Z,42.50
2022-12-17T05:49:03.956Z,42.20
2022-12-17T05:51:53.142Z,42.60
2022-12-17T05:54:39.434Z,42.30
2022-12-17T05:57:26.144Z,42.60
2022-12-17T06:00:12.248Z,42.80
2022-12-17T06:02:58.708Z,43.10
2022-12-17T06:05:45.445Z,43.00
2022-12-17T06:08:32.059Z,43.20
2022-12-17T06:11:18.916Z,42.70
2022-12-17T06:14:06.057Z,43.20
2022-12-17T06:16:52.142Z,43.10
2022-12-17T06:19:38.352Z,43.10
2022-12-17T06:22:24.874Z,42.90
2022-12-17T06:25:11.602Z,43.10
2022-12-17T06:27:58.243Z,43.20
2022-12-17T06:30:44.948Z,43.10
2022-12-17T06:33:31.519Z,43.10
2022-12-17T06:36:22.418Z,43.60
2022-12-17T06:39:09.504Z,43.20
2022-12-17T06:42:02.019Z,43.70
2022-12-17T06:44:50.861Z,43.30
2022-12-17T06:47:38.893Z,43.60
2022-12-17T06:50:26.029Z,43.60
2022-12-17T06:53:20.290Z,43.50
2022-12-17T06:56:06.918Z,43.60
2022-12-17T06:58:53.664Z,43.70
2022-12-17T07:01:40.261Z,43.60
2022-12-17T07:04:26.810Z,43.90
2022-12-17T07:07:13.106Z,44.10
2022-12-17T07:10:00.276Z,43.80
2022-12-17T07:12:47.217Z,43.90
2022-12-17T07:15:33.624Z,44.00
2022-12-17T07:18:22.871Z,44.00
2022-12-17T07:21:11.988Z,44.20
2022-12-17T07:24:01.264Z,44.20
2022-12-17T07:26:47.454Z,44.20
2022-12-17T07:29:34.077Z,44.40
2022-12-17T07:32:20.799Z,44.30
2022-12-17T07:35:06.980Z,44.20
2022-12-17T07:37:53.736Z,44.40
2022-12-17T07:40:40.116Z,44.10
2022-12-17T07:43:31.376Z,44.50
2022-12-17T07:46:18.026Z,44.30
2022-12-17T07:49:04.691Z,44.50
2022-12-17T07:51:51.309Z,44.60
2022-12-17T07:54:38.174Z,44.90
2022-12-17T07:57:24.807Z,44.30
2022-12-17T08:00:11.559Z,44.60
2022-12-17T08:02:58.304Z,44.60
2022-12-17T08:05:45.108Z,44.60
2022-12-17T08:08:33.279Z,44.50
2022-12-17T08:11:19.777Z,44.60
2022-12-17T08:14:06.373Z,44.70
2022-12-17T08:16:52.652Z,44.90
2022-12-17T08:19:39.446Z,44.60
2022-12-17T08:22:26.214Z,44.50
2022-12-17T08:25:12.621Z,44.60
2022-12-17T08:27:59.336Z,45.10
2022-12-17T08:30:45.633Z,44.80
2022-12-17T08:33:32.351Z,44.70
2022-12-17T08:36:18.866Z,44.60
2022-12-17T08:39:05.500Z,44.80
2022-12-17T08:41:54.969Z,45.20
2022-12-17T08:44:43.072Z,44.90
2022-12-17T08:47:29.589Z,44.80
2022-12-17T08:50:15.980Z,45.20
2022-12-17T08:53:02.500Z,45.10
2022-12-17T08:55:48.911Z,45.00
2022-12-17T08:58:35.452Z,45.10
2022-12-17T09:01:22.294Z,45.20
2022-12-17T09:04:08.807Z,45.20
2022-12-17T09:06:55.012Z,45.00
2022-12-17T09:09:41.311Z,45.30
2022-12-17T09:12:28.039Z,45.10
2022-12-17T09:15:14.750Z,45.20
2022-12-17T09:18:01.505Z,45.30
2022-12-17T09:20:48.218Z,45.30
2022-12-17T09:23:37.738Z,45.60
2022-12-17T09:26:25.555Z,45.30
2022-12-17T09:29:12.173Z,45.50
2022-12-17T09:31:58.917Z,45.40
2022-12-17T09:34:45.557Z,45.30
2022-12-17T09:37:31.936Z,45.50
2022-12-17T09:40:29.522Z,45.70
2022-12-17T09:43:21.763Z,45.60
2022-12-17T09:46:39.199Z,45.60
2022-12-17T09:49:44.518Z,45.50
2022-12-17T09:52:37.832Z,45.70
2022-12-17T09:55:35.527Z,45.60
2022-12-17T09:58:22.575Z,45.70
2022-12-17T10:01:12.628Z,45.80
2022-12-17T10:04:02.105Z,45.80
2022-12-17T10:06:49.914Z,45.90
2022-12-17T10:09:38.168Z,45.90
2022-12-17T10:12:35.655Z,45.80
2022-12-17T10:15:23.334Z,45.90
2022-12-17T10:18:10.582Z,45.90
2022-12-17T10:21:12.413Z,46.10
2022-12-17T10:23:59.068Z,46.00
2022-12-17T10:26:49.906Z,45.90
2022-12-17T10:29:47.088Z,46.10
2022-12-17T10:32:34.187Z,46.00
2022-12-17T10:35:45.480Z,46.10
2022-12-17T10:38:49.296Z,46.00
2022-12-17T10:41:47.030Z,46.20
2022-12-17T10:44:59.849Z,46.10
2022-12-17T10:47:46.917Z,46.20
2022-12-17T10:50:39.550Z,46.40
2022-12-17T10:53:41.554Z,46.50
2022-12-17T10:56:44.203Z,46.50
2022-12-17T10:59:54.637Z,46.40
2022-12-17T11:02:47.452Z,46.40
2022-12-17T11:05:45.713Z,46.30
2022-12-17T11:08:52.922Z,46.40
2022-12-17T11:11:39.961Z,46.40
2022-12-17T11:14:29.991Z,46.50
2022-12-17T11:17:21.682Z,46.60
2022-12-17T11:20:12.094Z,46.60
2022-12-17T11:23:06.719Z,46.60
2022-12-17T11:26:14.312Z,46.80
2022-12-17T11:29:01.210Z,46.70
2022-12-17T11:32:09.524Z,46.70
2022-12-17T11:35:14.686Z,46.60
2022-12-17T11:38:15.615Z,46.80
2022-12-17T11:41:08.563Z,46.80
2022-12-17T11:44:11.549Z,46.80
2022-12-17T11:47:29.345Z,46.90
2022-12-17T11:50:24.530Z,47.00
2022-12-17T11:53:29.293Z,46.70
2022-12-17T11:56:33.512Z,47.00
2022-12-17T11:59:52.929Z,47.20
2022-12-17T12:03:02.978Z,47.00
2022-12-17T12:06:12.531Z,47.00
2022-12-17T12:09:31.549Z,47.10
2022-12-17T12:13:02.256Z,47.10
2022-12-17T12:16:00.584Z,47.10
2022-12-17T12:19:02.251Z,47.20
2022-12-17T12:22:09.711Z,47.30
2022-12-17T12:25:34.687Z,47.40
2022-12-17T12:28:39.922Z,47.40
2022-12-17T12:31:43.687Z,47.60
2022-12-17T12:34:44.653Z,47.30
2022-12-17T12:37:34.361Z,47.60
2022-12-17T12:40:40.103Z,47.30
2022-12-17T12:43:39.471Z,47.50
2022-12-17T12:46:42.821Z,47.40
2022-12-17T12:49:51.876Z,47.60
2022-12-17T12:52:46.441Z,47.70
2022-12-17T12:55:33.040Z,47.60
2022-12-17T12:58:21.272Z,47.60
2022-12-17T13:01:07.699Z,47.70
2022-12-17T13:04:01.974Z,47.80
2022-12-17T13:06:57.167Z,47.80
2022-12-17T13:09:36.417Z,47.90
2022-12-17T13:12:04.664Z,47.70
2022-12-17T13:15:14.359Z,47.60
2022-12-17T13:18:13.265Z,47.70
2022-12-17T13:20:41.272Z,47.90
2022-12-17T13:23:12.004Z,47.70
2022-12-17T13:25:41.061Z,47.80
2022-12-17T13:28:31.297Z,47.80
2022-12-17T13:31:13.885Z,47.90
2022-12-17T13:34:16.440Z,47.90
2022-12-17T13:36:44.380Z,47.90
2022-12-17T13:39:47.561Z,48.20
2022-12-17T13:42:27.223Z,48.00
2022-12-17T13:44:56.599Z,48.20
2022-12-17T13:47:31.045Z,48.00
2022-12-17T13:52:49.212Z,47.90
2022-12-17T13:55:22.830Z,48.10
2022-12-17T13:57:51.895Z,48.20
2022-12-17T14:00:24.869Z,48.20
2022-12-17T14:02:54.037Z,48.10
2022-12-17T14:05:37.640Z,48.30
2022-12-17T14:08:06.192Z,48.30
2022-12-17T14:10:34.438Z,48.30
2022-12-17T14:13:10.727Z,48.30
2022-12-17T14:15:39.116Z,48.40
2022-12-17T14:18:15.622Z,48.30
2022-12-17T14:20:44.058Z,48.40
2022-12-17T14:23:28.196Z,48.30
2022-12-17T14:25:57.401Z,48.30
2022-12-17T14:28:50.277Z,48.70
2022-12-17T14:31:27.950Z,48.70
2022-12-17T14:34:11.215Z,48.60
2022-12-17T14:36:42.478Z,48.40
2022-12-17T14:39:44.299Z,48.50
2022-12-17T14:42:31.114Z,48.70
2022-12-17T14:45:25.752Z,48.40
2022-12-17T14:47:54.774Z,48.50
2022-12-17T14:50:22.786Z,48.50
2022-12-17T14:52:57.641Z,48.70
2022-12-17T14:55:39.945Z,48.50
2022-12-17T14:58:18.597Z,48.90
2022-12-17T15:00:54.619Z,48.80
2022-12-17T15:03:28.405Z,48.80
2022-12-17T15:06:02.474Z,48.80
2022-12-17T15:08:34.982Z,48.60
2022-12-17T15:11:03.327Z,48.80
2022-12-17T15:13:31.536Z,48.60
2022-12-17T15:15:59.613Z,48.70
2022-12-17T15:18:28.839Z,48.50
2022-12-17T15:20:56.990Z,48.50
2022-12-17T15:23:25.394Z,48.90
2022-12-17T15:25:54.014Z,48.80
2022-12-17T15:28:23.224Z,48.90
2022-12-17T15:30:51.436Z,48.70
2022-12-17T15:33:19.645Z,48.80
2022-12-17T15:35:47.980Z,49.00
2022-12-17T15:38:16.073Z,48.90
2022-12-17T15:40:44.245Z,49.20
2022-12-17T15:43:13.214Z,49.10
2022-12-17T15:45:48.298Z,49.00
2022-12-17T15:48:19.755Z,49.10
2022-12-17T15:50:48.624Z,48.90
2022-12-17T15:53:17.249Z,49.00
2022-12-17T15:55:45.109Z,49.10
2022-12-17T15:58:14.094Z,49.10
2022-12-17T16:00:42.269Z,49.40
2022-12-17T16:03:10.254Z,49.10
2022-12-17T16:05:38.522Z,49.00
2022-12-17T16:08:07.978Z,49.30
2022-12-17T16:10:36.959Z,49.10
2022-12-17T16:13:05.524Z,49.20
2022-12-17T16:15:33.629Z,48.70
2022-12-17T16:18:01.780Z,48.50
2022-12-17T16:20:29.805Z,48.10
2022-12-17T16:22:58.109Z,48.00
2022-12-17T16:25:26.308Z,47.90
2022-12-17T16:27:54.266Z,47.90
2022-12-17T16:30:22.293Z,47.80
2022-12-17T16:32:50.745Z,47.70
2022-12-17T16:35:18.880Z,47.60
2022-12-17T16:37:46.980Z,47.60
2022-12-17T16:40:15.054Z,47.50
2022-12-17T16:42:43.231Z,47.50
2022-12-17T16:45:11.446Z,47.30
2022-12-17T16:47:40.043Z,47.30
2022-12-17T16:50:08.272Z,47.30
2022-12-17T16:52:36.440Z,47.00
2022-12-17T16:55:04.741Z,47.10
2022-12-17T16:57:32.803Z,47.10
2022-12-17T17:00:01.076Z,47.00
2022-12-17T17:02:29.360Z,47.00
2022-12-17T17:04:57.544Z,46.90
2022-12-17T17:07:25.551Z,46.90
2022-12-17T17:09:53.352Z,46.80
2022-12-17T17:12:21.439Z,46.80
2022-12-17T17:14:52.104Z,46.70
2022-12-17T17:17:20.303Z,46.70
2022-12-17T17:20:08.797Z,46.60
2022-12-17T17:22:36.920Z,46.60
2022-12-17T17:25:05.370Z,46.60
2022-12-17T17:27:33.655Z,46.50
2022-12-17T17:30:03.993Z,46.50
2022-12-17T17:32:32.498Z,46.40
2022-12-17T17:35:01.030Z,46.40
2022-12-17T17:37:29.121Z,46.30
2022-12-17T17:39:57.025Z,46.30
2022-12-17T17:42:25.162Z,46.30
2022-12-17T17:44:53.241Z,46.30
2022-12-17T17:47:21.304Z,46.20
2022-12-17T17:49:49.270Z,46.20
2022-12-17T17:52:18.029Z,46.20
2022-12-17T17:54:47.269Z,46.10
2022-12-17T17:57:15.392Z,46.00
2022-12-17T17:59:43.208Z,46.00
2022-12-17T18:02:12.040Z,46.00
2022-12-17T18:04:40.247Z,46.00
2022-12-17T18:07:24.805Z,45.90
2022-12-17T18:09:54.969Z,45.90
2022-12-17T18:12:41.938Z,45.80
2022-12-17T18:15:15.255Z,45.90
2022-12-17T18:17:46.791Z,45.80
2022-12-17T18:20:15.084Z,45.80
2022-12-17T18:22:45.101Z,45.70
2022-12-17T18:25:13.279Z,45.70
2022-12-17T18:27:41.314Z,45.70
2022-12-17T18:30:10.114Z,45.60
2022-12-17T18:32:38.124Z,45.70
2022-12-17T18:35:06.603Z,45.60
2022-12-17T18:37:34.670Z,45.50
2022-12-17T18:40:03.465Z,45.60
2022-12-17T18:42:50.134Z,45.50
2022-12-17T18:45:18.183Z,45.50
2022-12-17T18:47:46.288Z,45.50
2022-12-17T18:50:14.534Z,45.50
2022-12-17T18:52:42.821Z,45.40
2022-12-17T18:55:11.091Z,45.50
2022-12-17T18:57:39.214Z,45.40
2022-12-17T19:00:08.023Z,45.40
2022-12-17T19:02:36.070Z,45.30
2022-12-17T19:05:04.708Z,45.30
2022-12-17T19:07:33.501Z,45.30
2022-12-17T19:10:01.541Z,45.30
2022-12-17T19:12:30.174Z,45.20
2022-12-17T19:14:58.018Z,45.20
2022-12-17T19:17:26.638Z,45.20
2022-12-17T19:19:54.500Z,45.20
2022-12-17T19:22:22.658Z,45.20
2022-12-17T19:24:50.568Z,45.20
2022-12-17T19:27:18.738Z,45.10
2022-12-17T19:29:49.587Z,45.10
2022-12-17T19:32:18.073Z,45.10
2022-12-17T19:34:45.902Z,45.10
2022-12-17T19:37:13.940Z,45.10
2022-12-17T19:39:41.934Z,45.00
2022-12-17T19:42:24.967Z,45.00
2022-12-17T19:44:54.408Z,44.90
2022-12-17T19:47:24.230Z,44.90
2022-12-17T19:49:52.279Z,45.00
2022-12-17T19:52:20.414Z,44.90
2022-12-17T19:54:49.552Z,44.90
2022-12-17T19:57:17.614Z,44.90
2022-12-17T19:59:45.640Z,44.80
2022-12-17T20:02:15.898Z,44.80
2022-12-17T20:04:43.950Z,44.80
2022-12-17T20:07:12.174Z,44.80
2022-12-17T20:09:44.179Z,44.70
2022-12-17T20:12:12.950Z,44.70
2022-12-17T20:14:41.053Z,44.60
2022-12-17T20:17:10.024Z,44.60
2022-12-17T20:19:37.944Z,44.50
2022-12-17T20:22:06.753Z,44.50
2022-12-17T20:24:35.114Z,44.50
2022-12-17T20:27:03.781Z,44.50
2022-12-17T20:29:31.889Z,44.40
2022-12-17T20:32:02.620Z,44.40
2022-12-17T20:34:30.756Z,44.40
2022-12-17T20:36:58.810Z,44.40
2022-12-17T20:39:28.251Z,44.30
2022-12-17T20:41:57.597Z,44.40
2022-12-17T20:44:26.425Z,44.30
2022-12-17T20:46:54.569Z,44.30
2022-12-17T20:49:22.683Z,44.30
2022-12-17T20:51:50.660Z,44.30
2022-12-17T20:54:18.722Z,44.20
2022-12-17T20:56:46.672Z,44.30
2022-12-17T20:59:17.307Z,44.20
2022-12-17T21:01:50.425Z,44.10
2022-12-17T21:04:22.255Z,44.10
2022-12-17T21:06:50.214Z,44.10
2022-12-17T21:09:20.282Z,44.00
2022-12-17T21:11:48.727Z,44.00
2022-12-17T21:14:18.633Z,44.10
2022-12-17T21:16:48.035Z,44.00
2022-12-17T21:19:18.741Z,44.00
2022-12-17T21:21:46.979Z,44.10
2022-12-17T21:24:15.182Z,44.00
2022-12-17T21:26:44.611Z,44.00
2022-12-17T21:29:12.897Z,44.00
2022-12-17T21:31:51.693Z,44.00
2022-12-17T21:34:22.356Z,43.90
2022-12-17T21:36:51.152Z,44.00
2022-12-17T21:39:19.996Z,44.00
2022-12-17T21:42:08.465Z,44.00
2022-12-17T21:44:37.151Z,43.90
2022-12-17T21:47:05.161Z,43.90
2022-12-17T21:49:33.061Z,43.90
2022-12-17T21:52:02.394Z,43.90
2022-12-17T21:54:30.435Z,43.90
2022-12-17T21:56:58.449Z,43.80
2022-12-17T21:59:26.274Z,43.80
2022-12-17T22:01:57.607Z,43.80
2022-12-17T22:04:26.750Z,43.70
2022-12-17T22:06:58.074Z,43.70
2022-12-17T22:09:50.343Z,43.70
2022-12-17T22:12:43.933Z,43.70
2022-12-17T22:15:12.125Z,43.70
2022-12-17T22:17:42.710Z,43.70
2022-12-17T22:20:11.759Z,43.70
2022-12-17T22:22:39.685Z,43.70
2022-12-17T22:25:11.135Z,43.60
2022-12-17T22:27:40.998Z,43.60
2022-12-17T22:30:33.245Z,43.60
2022-12-17T22:33:24.018Z,43.60
2022-12-17T22:37:18.353Z,43.60
2022-12-17T22:41:48.489Z,43.60
2022-12-17T22:44:42.775Z,43.60
2022-12-17T22:44:51.307Z,43.60
2022-12-17T22:47:21.176Z,43.60
2022-12-17T22:49:49.279Z,43.60
2022-12-17T22:52:17.542Z,43.50
2022-12-17T22:54:47.132Z,43.50
2022-12-17T22:57:36.991Z,43.50
2022-12-17T23:00:07.521Z,43.50
2022-12-17T23:02:35.412Z,43.40
2022-12-17T23:05:03.342Z,43.40
2022-12-17T23:07:32.123Z,43.40
2022-12-17T23:10:00.256Z,43.30
2022-12-17T23:12:46.282Z,43.40
2022-12-17T23:15:14.161Z,43.40
2022-12-17T23:17:42.225Z,43.30
2022-12-17T23:20:11.395Z,43.30
2022-12-17T23:22:39.442Z,43.30
2022-12-17T23:25:07.932Z,43.30
2022-12-17T23:27:35.954Z,43.30
2022-12-17T23:30:07.624Z,43.30
2022-12-17T23:32:35.758Z,43.30
2022-12-17T23:35:04.770Z,43.30
2022-12-17T23:37:38.033Z,43.30
2022-12-17T23:40:12.074Z,43.30
2022-12-17T23:42:40.295Z,43.30
2022-12-17T23:45:11.125Z,43.20
2022-12-17T23:47:40.101Z,43.30
2022-12-17T23:50:10.344Z,43.20
2022-12-17T23:52:38.736Z,43.20
2022-12-17T23:55:07.731Z,43.20
2022-12-17T23:57:36.150Z,43.10
